Time;durP1;ratioP1;P1;durP2;ratioP2;P2;SDS_P1;SDS_P2;PMS_P1;PMS_P2;Temp;Humidity;BMP_temperature;BMP_pressure;BME280_temperature;BME280_humidity;BME280_pressure;Samples;Min_cycle;Max_cycle;Signal;HPM_P1;HPM_P2
2021/12/25 00:02:25;;;;;;;4.13;1.30;;;-16.30;95.80;;;;;;2220794;64;20081;-46
2021/12/25 00:04:52;;;;;;;2.73;0.87;;;-16.40;95.50;;;;;;2220238;64;20134;-45
2021/12/25 00:07:20;;;;;;;5.70;2.53;;;-16.50;95.40;;;;;;2220685;64;20104;-44
2021/12/25 00:09:47;;;;;;;6.23;2.23;;;-16.50;95.30;;;;;;2220183;64;20443;-45
2021/12/25 00:12:13;;;;;;;6.17;1.50;;;-16.50;95.40;;;;;;2220525;64;20507;-46
2021/12/25 00:14:40;;;;;;;5.20;1.67;;;-16.50;95.50;;;;;;2220945;64;20095;-44
2021/12/25 00:17:06;;;;;;;5.73;2.70;;;-16.60;95.40;;;;;;2221042;64;20093;-44
2021/12/25 00:19:33;;;;;;;3.77;1.60;;;-16.60;95.30;;;;;;2221113;64;20168;-43
2021/12/25 00:22:00;;;;;;;1.77;1.07;;;-16.60;95.40;;;;;;2220924;64;20127;-46
2021/12/25 00:24:26;;;;;;;7.70;2.87;;;-16.60;95.40;;;;;;2221344;64;20089;-44
2021/12/25 00:27:01;;;;;;;5.37;2.67;;;-16.70;95.30;;;;;;2221150;64;20084;-44
2021/12/25 00:30:37;;;;;;;3.72;1.55;;;-16.70;95.40;;;;;;2221241;64;20115;-43
2021/12/25 00:34:50;;;;;;;11.47;3.63;;;-16.70;95.50;;;;;;2221116;64;20084;-44
2021/12/25 00:37:16;;;;;;;5.13;2.53;;;-16.70;95.50;;;;;;2221028;64;20096;-45
2021/12/25 00:39:43;;;;;;;6.20;2.27;;;-16.80;95.40;;;;;;2220274;64;20495;-44
2021/12/25 00:42:10;;;;;;;7.13;2.67;;;-16.80;95.40;;;;;;2220567;64;20116;-44
2021/12/25 00:44:37;;;;;;;3.77;1.20;;;-16.80;95.30;;;;;;2220075;64;20101;-44
2021/12/25 00:47:04;;;;;;;7.30;2.63;;;-16.90;95.40;;;;;;2220440;64;20089;-48
2021/12/25 00:49:30;;;;;;;6.50;1.60;;;-16.90;95.40;;;;;;2220560;64;20073;-44
2021/12/25 00:51:57;;;;;;;11.97;2.97;;;-16.90;95.40;;;;;;2220373;64;20104;-44
2021/12/25 00:54:24;;;;;;;9.00;3.43;;;-16.90;95.40;;;;;;2220739;64;20433;-45
2021/12/25 00:56:50;;;;;;;5.53;1.63;;;-16.90;95.40;;;;;;2220410;64;20471;-44
2021/12/25 00:59:17;;;;;;;5.70;2.50;;;-16.90;95.30;;;;;;2220661;64;20076;-44
2021/12/25 01:01:44;;;;;;;1.37;0.97;;;-16.90;95.40;;;;;;2219866;64;20246;-44
2021/12/25 01:04:10;;;;;;;5.83;1.17;;;-16.90;95.40;;;;;;2220502;64;20177;-43
2021/12/25 01:06:37;;;;;;;6.87;2.10;;;-16.90;95.40;;;;;;2220358;64;20479;-45
2021/12/25 01:09:04;;;;;;;2.80;1.37;;;-16.90;95.40;;;;;;2218719;64;20116;-44
2021/12/25 01:11:32;;;;;;;2.87;1.30;;;-16.90;95.30;;;;;;2218780;64;20104;-53
2021/12/25 01:14:21;;;;;;;7.60;2.70;;;-16.80;95.50;;;;;;2219143;64;20104;-45
2021/12/25 01:25:14;;;;;;;3.30;1.60;;;-16.70;95.50;;;;;;2216140;64;20092;-43
2021/12/25 01:30:23;;;;;;;7.23;3.63;;;-16.70;95.20;;;;;;2219470;64;20173;-44
2021/12/25 01:35:42;;;;;;;2.80;1.20;;;-16.60;95.40;;;;;;2219411;64;20139;-44
2021/12/25 01:41:13;;;;;;;;;;;-16.60;95.20;;;;;;2218261;64;20489;-44
2021/12/25 01:49:09;;;;;;;2.97;1.30;;;-16.80;94.70;;;;;;2217433;64;20070;-43
2021/12/25 01:51:36;;;;;;;0.97;0.37;;;-16.90;94.60;;;;;;2217075;64;20096;-44
2021/12/25 01:54:03;;;;;;;6.67;2.60;;;-16.80;94.80;;;;;;2217403;64;20160;-51
2021/12/25 01:56:29;;;;;;;7.23;2.83;;;-16.90;94.50;;;;;;2209357;64;20218;-43
2021/12/25 01:58:56;;;;;;;8.50;2.43;;;-16.90;94.80;;;;;;2217322;64;20089;-44
2021/12/25 02:01:22;;;;;;;4.90;2.80;;;-16.90;94.60;;;;;;2218059;64;20564;-46
2021/12/25 02:03:49;;;;;;;8.73;3.17;;;-16.90;94.70;;;;;;2217930;64;20108;-45
2021/12/25 02:06:15;;;;;;;5.67;1.90;;;-16.80;94.60;;;;;;2217762;64;20085;-45
2021/12/25 02:08:43;;;;;;;3.53;1.10;;;-16.90;94.90;;;;;;2217724;64;20099;-45
2021/12/25 02:11:10;;;;;;;4.20;1.53;;;-16.90;94.70;;;;;;2217701;64;20127;-46
2021/12/25 02:13:41;;;;;;;11.40;2.23;;;-16.80;94.90;;;;;;2217297;64;20081;-44
2021/12/25 02:16:13;;;;;;;3.87;1.40;;;-16.70;95.10;;;;;;2217313;64;20160;-44
2021/12/25 02:19:03;;;;;;;10.33;2.13;;;-16.60;95.20;;;;;;2217154;64;20092;-44
2021/12/25 02:21:40;;;;;;;3.90;1.80;;;-16.60;95.40;;;;;;2217136;64;20206;-44
2021/12/25 02:24:08;;;;;;;5.40;1.90;;;-16.60;95.40;;;;;;2217193;64;20093;-44
2021/12/25 02:26:44;;;;;;;8.10;3.67;;;-16.60;95.30;;;;;;2217342;64;20456;-48
2021/12/25 02:29:16;;;;;;;10.80;4.47;;;-16.60;95.30;;;;;;2214044;64;20103;-44
2021/12/25 02:31:48;;;;;;;8.33;3.10;;;-16.60;95.30;;;;;;2216328;64;20093;-44
2021/12/25 02:34:19;;;;;;;5.60;2.40;;;-16.60;95.20;;;;;;2216510;64;20097;-45
2021/12/25 02:36:51;;;;;;;3.27;1.30;;;-16.60;95.30;;;;;;2213237;64;20096;-44
2021/12/25 02:39:23;;;;;;;4.93;1.87;;;-16.50;95.60;;;;;;2216472;64;20104;-44
2021/12/25 02:41:55;;;;;;;2.70;1.47;;;-16.50;95.10;;;;;;2216498;64;20174;-44
2021/12/25 02:44:27;;;;;;;7.27;0.50;;;-16.50;94.80;;;;;;2219520;64;20089;-43
2021/12/25 02:47:08;;;;;;;0.77;0.77;;;-16.50;94.50;;;;;;2216457;64;20101;-43
2021/12/25 02:49:40;;;;;;;1.63;1.40;;;-16.50;94.50;;;;;;2216347;64;20101;-44
2021/12/25 02:52:12;;;;;;;5.63;2.03;;;-16.60;94.30;;;;;;2219146;64;20485;-49
2021/12/25 02:54:44;;;;;;;4.80;1.93;;;-16.60;94.30;;;;;;2219548;64;20105;-44
2021/12/25 02:57:15;;;;;;;4.93;2.03;;;-16.60;94.40;;;;;;2219519;64;20434;-44
2021/12/25 02:59:50;;;;;;;3.27;1.20;;;-16.50;94.60;;;;;;2216379;64;20190;-46
2021/12/25 03:02:22;;;;;;;4.80;1.73;;;-16.50;94.50;;;;;;2216369;64;20081;-44
2021/12/25 03:04:54;;;;;;;1.67;0.93;;;-16.40;94.50;;;;;;2216410;64;20105;-44
2021/12/25 03:07:26;;;;;;;4.90;2.60;;;-16.30;94.70;;;;;;2216417;64;20089;-45
2021/12/25 03:09:57;;;;;;;2.43;1.37;;;-16.30;94.50;;;;;;2213200;64;20111;-43
2021/12/25 03:12:36;;;;;;;1.30;0.77;;;-16.30;94.30;;;;;;2219387;64;20096;-45
2021/12/25 03:15:15;;;;;;;6.37;2.63;;;-16.30;94.50;;;;;;2216154;64;20214;-45
2021/12/25 03:17:47;;;;;;;6.33;2.20;;;-16.30;94.90;;;;;;2216227;64;20085;-44
2021/12/25 03:20:19;;;;;;;7.40;2.33;;;-16.20;95.40;;;;;;2219341;64;20085;-44
2021/12/25 03:22:51;;;;;;;3.93;2.40;;;-16.10;95.40;;;;;;2220262;64;20092;-45
2021/12/25 03:25:23;;;;;;;9.20;2.77;;;-16.10;95.10;;;;;;2216260;64;20085;-43
2021/12/25 03:27:56;;;;;;;5.77;2.60;;;-16.20;94.90;;;;;;2219298;64;20093;-45
2021/12/25 03:30:28;;;;;;;4.38;1.35;;;-16.30;95.00;;;;;;2219240;64;20167;-45
2021/12/25 03:33:00;;;;;;;3.37;1.50;;;-16.30;95.10;;;;;;2216131;64;20117;-45
2021/12/25 03:35:34;;;;;;;5.83;2.77;;;-16.30;95.10;;;;;;2219065;64;20077;-45
2021/12/25 03:38:07;;;;;;;4.72;2.58;;;-16.20;95.10;;;;;;2216217;64;20722;-44
2021/12/25 03:40:39;;;;;;;5.45;2.78;;;-16.20;95.30;;;;;;2214998;64;20088;-48
2021/12/25 03:43:11;;;;;;;6.43;2.40;;;-16.10;95.50;;;;;;2219921;64;20100;-45
2021/12/25 03:45:43;;;;;;;4.03;2.37;;;-16.10;95.60;;;;;;2222960;64;20084;-46
2021/12/25 03:59:14;;;;;;;6.60;2.73;;;-15.80;95.60;;;;;;2219833;64;20103;-44
2021/12/25 04:01:52;;;;;;;6.40;2.50;;;-15.80;95.70;;;;;;2220029;64;20096;-45
2021/12/25 04:04:37;;;;;;;10.13;3.17;;;-15.70;95.80;;;;;;2219916;64;20096;-44
2021/12/25 04:07:21;;;;;;;6.20;4.13;;;-15.70;95.80;;;;;;2220002;64;20080;-47
2021/12/25 04:09:58;;;;;;;12.50;3.33;;;-15.70;95.90;;;;;;2219876;64;20150;-45
2021/12/25 04:12:30;;;;;;;6.93;3.40;;;-15.60;96.00;;;;;;2220042;64;20081;-45
2021/12/25 04:15:02;;;;;;;5.33;2.63;;;-15.50;96.00;;;;;;2219943;64;20091;-44
2021/12/25 04:17:34;;;;;;;10.57;2.60;;;-15.50;95.90;;;;;;2219909;64;20104;-45
2021/12/25 04:20:07;;;;;;;8.37;3.70;;;-15.50;95.90;;;;;;2219965;64;20599;-44
2021/12/25 04:22:46;;;;;;;7.97;3.47;;;-15.50;96.00;;;;;;2220006;64;20096;-46
2021/12/25 04:25:23;;;;;;;9.40;5.20;;;-15.30;96.30;;;;;;2219901;64;20111;-44
2021/12/25 04:27:59;;;;;;;9.87;3.67;;;-15.10;96.40;;;;;;2219780;64;20119;-46
2021/12/25 04:30:42;;;;;;;7.33;2.90;;;-15.20;96.00;;;;;;2219959;64;20160;-46
2021/12/25 05:01:41;;;;;;;4.50;2.17;;;-15.30;95.50;;;;;;2216116;64;20177;-45
2021/12/25 05:04:08;;;;;;;3.40;2.20;;;-15.20;95.80;;;;;;2216834;64;20247;-45
2021/12/25 05:06:40;;;;;;;3.73;1.80;;;-15.20;95.90;;;;;;2216844;64;20510;-46
2021/12/25 05:09:12;;;;;;;7.27;3.00;;;-15.20;95.80;;;;;;2217016;64;20133;-45
2021/12/25 05:11:44;;;;;;;5.90;2.10;;;-15.20;95.80;;;;;;2216794;64;20135;-46
2021/12/25 05:14:16;;;;;;;10.67;3.73;;;-15.10;96.20;;;;;;2216732;64;20173;-46
2021/12/25 05:16:48;;;;;;;11.13;4.23;;;-15.10;96.10;;;;;;2216576;64;20564;-44
2021/12/25 05:19:21;;;;;;;7.55;3.70;;;-14.90;96.20;;;;;;2216542;64;20081;-45
2021/12/25 05:21:54;;;;;;;9.83;3.67;;;-14.90;96.10;;;;;;2216548;64;20107;-46
2021/12/25 05:24:27;;;;;;;8.53;3.90;;;-14.90;96.10;;;;;;2216536;64;20112;-46
2021/12/25 05:27:00;;;;;;;12.73;4.10;;;-14.90;96.20;;;;;;2216606;64;20163;-45
2021/12/25 05:29:34;;;;;;;11.63;3.93;;;-14.80;96.20;;;;;;2216524;64;20131;-46
2021/12/25 05:32:06;;;;;;;8.85;2.80;;;-14.90;96.10;;;;;;2216370;64;20096;-45
2021/12/25 05:34:38;;;;;;;9.47;3.23;;;-14.80;96.20;;;;;;2216455;64;20103;-45
2021/12/25 05:37:10;;;;;;;8.77;3.77;;;-14.90;95.90;;;;;;2216428;64;20496;-45
2021/12/25 05:39:49;;;;;;;7.17;3.67;;;-14.80;96.10;;;;;;2216881;64;20568;-46
2021/12/25 05:42:22;;;;;;;6.30;2.57;;;-14.80;95.90;;;;;;2220074;64;20084;-51
2021/12/25 05:44:54;;;;;;;6.80;3.83;;;-14.70;95.90;;;;;;2220342;64;20085;-47
2021/12/25 05:47:27;;;;;;;8.63;3.17;;;-14.70;95.90;;;;;;2220225;64;20088;-46
2021/12/25 05:49:59;;;;;;;5.13;2.60;;;-14.60;96.10;;;;;;2220088;64;20538;-52
2021/12/25 05:52:31;;;;;;;7.83;4.37;;;-14.60;96.10;;;;;;2220293;64;20189;-45
2021/12/25 05:55:03;;;;;;;8.03;3.63;;;-14.50;96.30;;;;;;2220388;64;20159;-48
2021/12/25 05:57:34;;;;;;;6.20;2.83;;;-14.30;96.60;;;;;;2220034;64;20497;-45
2021/12/25 06:00:07;;;;;;;12.30;4.90;;;-14.20;96.70;;;;;;2223122;64;21238;-47
2021/12/25 06:02:40;;;;;;;9.93;3.73;;;-14.00;96.60;;;;;;2220332;64;20241;-46
2021/12/25 06:05:11;;;;;;;7.33;3.60;;;-13.90;96.40;;;;;;2220253;64;20104;-46
2021/12/25 06:07:43;;;;;;;8.20;2.97;;;-14.00;95.90;;;;;;2220225;64;20084;-46
2021/12/25 06:10:15;;;;;;;5.97;2.30;;;-13.80;96.50;;;;;;2220129;64;20096;-47
2021/12/25 06:12:48;;;;;;;4.63;1.23;;;-13.70;96.40;;;;;;2220318;64;20089;-53
2021/12/25 06:15:20;;;;;;;6.03;2.73;;;-13.60;96.40;;;;;;2220081;64;20180;-46
2021/12/25 06:17:53;;;;;;;4.30;2.60;;;-13.50;95.90;;;;;;2220326;64;20084;-49
2021/12/25 06:20:25;;;;;;;7.40;3.00;;;-13.60;95.60;;;;;;2217115;64;20526;-47
2021/12/25 06:23:09;;;;;;;5.97;2.37;;;-13.50;95.70;;;;;;2220143;64;20108;-48
2021/12/25 06:25:52;;;;;;;8.50;4.30;;;-13.40;95.60;;;;;;2220139;64;20088;-49
2021/12/25 06:28:24;;;;;;;5.97;3.13;;;-13.30;95.40;;;;;;2223261;64;20095;-46
2021/12/25 06:31:21;;;;;;;5.80;2.27;;;-13.50;95.00;;;;;;2219966;64;20112;-45
2021/12/25 06:33:53;;;;;;;7.50;3.33;;;-13.30;95.40;;;;;;2220218;64;20139;-48
2021/12/25 06:36:38;;;;;;;6.30;2.70;;;-13.20;95.40;;;;;;2223252;64;20468;-47
2021/12/25 06:39:14;;;;;;;7.35;3.03;;;-12.80;95.20;;;;;;2220071;64;20545;-47
2021/12/25 06:41:46;;;;;;;9.27;3.17;;;-12.90;94.30;;;;;;2220136;64;20096;-47
2021/12/25 06:44:20;;;;;;;6.67;2.63;;;-12.70;94.40;;;;;;2223187;64;20081;-51
2021/12/25 06:46:52;;;;;;;8.63;4.13;;;-12.20;93.40;;;;;;2223204;64;20139;-48
2021/12/25 06:49:24;;;;;;;6.43;3.33;;;-11.90;93.80;;;;;;2220123;64;20096;-47
2021/12/25 06:51:56;;;;;;;7.40;2.37;;;-11.80;92.40;;;;;;2222930;64;20111;-48
2021/12/25 06:54:28;;;;;;;5.33;2.20;;;-11.50;91.60;;;;;;2223130;64;20146;-46
2021/12/25 06:57:01;;;;;;;5.37;1.67;;;-11.10;91.20;;;;;;2223179;64;20091;-48
2021/12/25 06:59:33;;;;;;;7.67;3.07;;;-11.20;90.70;;;;;;2223012;64;20135;-49
2021/12/25 07:02:05;;;;;;;2.80;1.50;;;-11.00;88.30;;;;;;2220165;64;20093;-46
2021/12/25 07:04:37;;;;;;;5.27;2.13;;;-10.80;88.40;;;;;;2219898;64;20514;-49
2021/12/25 07:07:09;;;;;;;2.93;1.33;;;-10.40;86.30;;;;;;2223220;64;20085;-48
2021/12/25 07:09:41;;;;;;;4.07;1.67;;;-10.10;83.60;;;;;;2223073;64;20104;-46
2021/12/25 07:12:12;;;;;;;4.00;1.23;;;-10.50;80.50;;;;;;2222791;64;20491;-46
2021/12/25 07:14:44;;;;;;;9.40;3.73;;;-10.20;83.10;;;;;;2223051;64;20104;-47
2021/12/25 07:17:16;;;;;;;4.47;2.23;;;-10.30;82.10;;;;;;2223141;64;20103;-48
2021/12/25 07:19:48;;;;;;;5.33;2.23;;;-10.20;79.70;;;;;;2223010;64;20157;-46
2021/12/25 07:22:20;;;;;;;5.53;2.60;;;-10.40;81.30;;;;;;2223141;64;20112;-45
2021/12/25 07:24:52;;;;;;;5.33;1.20;;;-10.50;83.20;;;;;;2219999;64;20104;-46
2021/12/25 07:27:24;;;;;;;2.37;1.23;;;-10.10;82.80;;;;;;2223292;64;20085;-47
2021/12/25 07:29:56;;;;;;;3.93;2.17;;;-10.30;84.20;;;;;;2223155;64;20222;-46
2021/12/25 07:32:28;;;;;;;7.23;2.80;;;-10.00;81.70;;;;;;2222942;64;20139;-44
2021/12/25 07:35:00;;;;;;;5.07;1.63;;;-9.70;78.20;;;;;;2223114;64;20646;-45
2021/12/25 07:37:32;;;;;;;1.30;0.80;;;-9.60;73.40;;;;;;2223228;64;20123;-45
2021/12/25 07:40:05;;;;;;;4.87;1.47;;;-9.20;74.10;;;;;;2219834;64;20108;-45
2021/12/25 07:42:36;;;;;;;2.40;1.10;;;-9.50;72.80;;;;;;2220034;64;20196;-44
2021/12/25 07:45:09;;;;;;;4.57;1.73;;;-9.30;73.30;;;;;;2214886;64;20121;-45
2021/12/25 07:47:46;;;;;;;3.90;1.60;;;-8.90;70.00;;;;;;2211894;64;20651;-46
2021/12/25 07:50:18;;;;;;;4.50;1.20;;;-8.30;67.10;;;;;;2210922;64;20175;-45
2021/12/25 07:52:49;;;;;;;5.67;2.00;;;-8.70;65.70;;;;;;2208170;64;20097;-45
2021/12/25 07:55:21;;;;;;;3.00;1.30;;;-8.80;68.90;;;;;;2208196;64;20179;-44
2021/12/25 07:57:54;;;;;;;2.70;1.47;;;-8.90;67.30;;;;;;2211176;64;20081;-52
2021/12/25 08:00:26;;;;;;;2.27;1.30;;;-9.20;70.90;;;;;;2211116;64;20120;-45
2021/12/25 08:02:57;;;;;;;3.30;1.53;;;-9.40;72.70;;;;;;2211142;64;20156;-43
2021/12/25 08:05:29;;;;;;;5.63;1.80;;;-9.70;73.30;;;;;;2211164;64;20089;-44
2021/12/25 08:08:03;;;;;;;3.03;1.60;;;-9.50;73.60;;;;;;2207926;64;20581;-43
2021/12/25 08:10:34;;;;;;;4.87;1.63;;;-9.90;76.30;;;;;;2204898;64;20160;-43
2021/12/25 08:13:06;;;;;;;3.00;1.20;;;-10.10;78.10;;;;;;2211127;64;20086;-46
2021/12/25 08:15:40;;;;;;;2.77;1.10;;;-9.80;79.50;;;;;;2207977;64;20556;-42
2021/12/25 08:18:12;;;;;;;5.53;1.57;;;-9.50;79.20;;;;;;2207871;64;20144;-44
2021/12/25 08:20:44;;;;;;;5.80;1.20;;;-9.20;76.00;;;;;;2207789;64;20187;-43
2021/12/25 08:23:16;;;;;;;4.57;1.27;;;-9.30;75.90;;;;;;2214460;64;20085;-43
2021/12/25 08:25:48;;;;;;;6.70;1.93;;;-9.20;75.30;;;;;;2212511;64;20591;-45
2021/12/25 08:28:19;;;;;;;2.27;1.30;;;-8.90;72.90;;;;;;2218072;64;20085;-44
2021/12/25 08:30:53;;;;;;;4.87;1.90;;;-9.30;73.90;;;;;;2219761;64;20568;-44
2021/12/25 08:33:25;;;;;;;6.07;0.80;;;-9.00;71.60;;;;;;2219661;64;20076;-46
2021/12/25 08:35:57;;;;;;;3.10;0.87;;;-9.20;71.30;;;;;;2216731;64;20077;-45
2021/12/25 08:38:29;;;;;;;1.10;0.53;;;-9.40;72.70;;;;;;2219785;64;20222;-43
2021/12/25 08:41:01;;;;;;;2.37;1.10;;;-9.40;71.00;;;;;;2222767;64;20337;-42
2021/12/25 08:43:36;;;;;;;3.67;1.00;;;-9.30;71.90;;;;;;2222729;64;20089;-44
2021/12/25 08:46:16;;;;;;;4.63;0.93;;;-9.70;75.00;;;;;;2222644;64;20530;-42
2021/12/25 08:48:48;;;;;;;4.00;1.30;;;-9.60;75.20;;;;;;2222905;64;20167;-43
2021/12/25 08:51:19;;;;;;;3.17;1.33;;;-9.70;75.80;;;;;;2222632;64;20246;-46
2021/12/25 08:53:51;;;;;;;7.67;2.37;;;-9.90;76.10;;;;;;2219771;64;20616;-42
2021/12/25 08:56:23;;;;;;;5.10;2.57;;;-10.10;76.80;;;;;;2222873;64;20167;-43
2021/12/25 08:58:55;;;;;;;3.83;1.63;;;-9.80;76.40;;;;;;2216613;64;20088;-42
2021/12/25 09:01:27;;;;;;;2.43;1.07;;;-9.70;73.90;;;;;;2222929;64;20093;-43
2021/12/25 09:04:00;;;;;;;2.83;1.00;;;-9.80;76.40;;;;;;2222912;64;20107;-46
2021/12/25 09:06:33;;;;;;;4.33;1.47;;;-9.30;72.70;;;;;;2222851;64;20088;-46
2021/12/25 09:09:06;;;;;;;4.27;1.47;;;-9.40;72.30;;;;;;2219678;64;20085;-45
2021/12/25 09:11:38;;;;;;;2.43;1.00;;;-9.60;72.80;;;;;;2216715;64;20166;-46
2021/12/25 09:14:10;;;;;;;4.80;2.00;;;-9.40;71.40;;;;;;2222916;64;20122;-47
2021/12/25 09:16:42;;;;;;;1.93;0.90;;;-9.20;70.20;;;;;;2219688;64;20473;-50
2021/12/25 09:19:14;;;;;;;4.90;1.57;;;-9.30;68.90;;;;;;2223011;64;20115;-46
2021/12/25 09:21:46;;;;;;;2.57;1.63;;;-9.10;70.00;;;;;;2216678;64;20112;-45
2021/12/25 09:24:18;;;;;;;2.10;1.17;;;-8.90;67.90;;;;;;2222844;64;20538;-47
2021/12/25 09:26:49;;;;;;;3.27;1.47;;;-9.00;66.90;;;;;;2222719;64;20541;-45
2021/12/25 09:29:21;;;;;;;2.83;1.10;;;-9.30;69.40;;;;;;2222727;64;20190;-43
2021/12/25 09:31:53;;;;;;;4.13;1.47;;;-9.10;68.00;;;;;;2222731;64;20170;-43
2021/12/25 09:34:25;;;;;;;5.40;2.23;;;-8.90;68.60;;;;;;2222893;64;20084;-43
2021/12/25 09:36:57;;;;;;;6.13;3.30;;;-9.00;68.00;;;;;;2222960;64;20145;-43
2021/12/25 09:39:29;;;;;;;3.53;2.00;;;-8.80;67.60;;;;;;2222756;64;20096;-51
2021/12/25 09:42:01;;;;;;;5.90;3.07;;;-8.70;67.90;;;;;;2219817;64;20089;-44
2021/12/25 09:44:33;;;;;;;3.90;1.57;;;-8.70;66.80;;;;;;2219667;64;20480;-43
2021/12/25 09:47:05;;;;;;;3.27;1.80;;;-8.90;67.50;;;;;;2223382;64;20103;-43
2021/12/25 09:49:37;;;;;;;3.30;1.30;;;-9.00;70.60;;;;;;2220224;64;20150;-43
2021/12/25 09:52:09;;;;;;;6.00;3.87;;;-9.10;70.10;;;;;;2220099;64;20115;-42
2021/12/25 09:54:40;;;;;;;3.37;1.93;;;-9.10;72.00;;;;;;2220357;64;20085;-44
2021/12/25 09:57:14;;;;;;;4.73;1.80;;;-9.10;72.10;;;;;;2223554;64;20440;-42
2021/12/25 09:59:46;;;;;;;3.47;2.20;;;-9.10;75.10;;;;;;2220371;64;20095;-43
2021/12/25 10:02:18;;;;;;;4.07;1.03;;;-9.40;80.10;;;;;;2220296;64;20092;-42
2021/12/25 10:04:52;;;;;;;4.30;1.40;;;-9.40;78.30;;;;;;2223311;64;20145;-43
2021/12/25 10:07:29;;;;;;;3.53;1.17;;;-9.40;81.00;;;;;;2220148;64;20425;-42
2021/12/25 10:10:10;;;;;;;4.00;1.57;;;-9.40;83.70;;;;;;2220244;64;20088;-51
2021/12/25 10:12:49;;;;;;;3.83;2.60;;;-9.30;82.70;;;;;;2220382;64;20106;-46
2021/12/25 10:15:22;;;;;;;2.70;1.13;;;-9.30;83.50;;;;;;2220248;64;20096;-44
2021/12/25 10:17:56;;;;;;;3.53;0.90;;;-9.30;82.90;;;;;;2220055;64;20092;-43
2021/12/25 10:20:30;;;;;;;21.33;4.43;;;-9.50;82.20;;;;;;2223399;64;20088;-43
2021/12/25 10:23:15;;;;;;;5.63;2.60;;;-9.30;80.70;;;;;;2223278;64;20093;-45
2021/12/25 10:25:49;;;;;;;7.90;3.38;;;-9.40;80.70;;;;;;2220137;64;20504;-43
2021/12/25 10:28:23;;;;;;;5.93;2.10;;;-9.40;81.20;;;;;;2220162;64;20143;-44
2021/12/25 10:31:07;;;;;;;4.60;2.77;;;-9.50;82.50;;;;;;2220063;64;20100;-45
2021/12/25 10:33:44;;;;;;;4.43;2.22;;;-9.70;84.20;;;;;;2220165;64;20556;-43
2021/12/25 10:36:31;;;;;;;5.30;3.43;;;-9.80;86.40;;;;;;2219939;64;20460;-46
2021/12/25 10:39:22;;;;;;;4.30;0.60;;;-9.90;88.50;;;;;;2220315;64;20088;-49
2021/12/25 10:42:06;;;;;;;4.50;2.47;;;-10.00;90.20;;;;;;2220185;64;20100;-44
2021/12/25 10:44:49;;;;;;;4.57;1.43;;;-9.80;90.50;;;;;;2220237;64;20156;-44
2021/12/25 10:47:22;;;;;;;7.93;2.23;;;-9.80;90.50;;;;;;2220138;64;20096;-45
2021/12/25 10:49:56;;;;;;;1.80;0.90;;;-9.90;90.90;;;;;;2220156;64;20107;-44
2021/12/25 10:52:40;;;;;;;2.03;0.80;;;-10.30;92.00;;;;;;2220118;64;20598;-43
2021/12/25 10:55:19;;;;;;;4.87;1.23;;;-10.20;93.30;;;;;;2220042;64;20101;-45
2021/12/25 10:57:53;;;;;;;5.00;2.03;;;-10.10;94.40;;;;;;2220087;64;20135;-43
2021/12/25 11:00:24;;;;;;;4.93;0.90;;;-10.10;94.70;;;;;;2220269;64;20081;-43
2021/12/25 11:03:01;;;;;;;3.47;1.63;;;-10.00;95.10;;;;;;2220169;64;20093;-45
2021/12/25 11:05:35;;;;;;;4.83;1.93;;;-9.90;93.90;;;;;;2220217;64;20089;-44
2021/12/25 11:08:09;;;;;;;2.10;1.87;;;-9.70;93.70;;;;;;2215050;64;20117;-44
2021/12/25 11:10:45;;;;;;;7.57;2.88;;;-9.60;93.30;;;;;;2215074;64;20555;-43
2021/12/25 11:13:30;;;;;;;4.20;2.70;;;-9.60;93.80;;;;;;2214772;64;20152;-48
2021/12/25 11:16:22;;;;;;;3.75;1.90;;;-9.40;93.30;;;;;;2215241;64;20175;-42
2021/12/25 11:19:06;;;;;;;8.10;1.70;;;-9.40;93.40;;;;;;2211960;64;20097;-43
2021/12/25 11:21:57;;;;;;;1.77;0.80;;;-9.40;94.10;;;;;;2215090;64;20105;-43
2021/12/25 11:24:42;;;;;;;4.17;2.23;;;-9.30;95.20;;;;;;2212067;64;20160;-43
2021/12/25 11:27:14;;;;;;;4.38;2.35;;;-9.20;95.60;;;;;;2209173;64;20639;-45
2021/12/25 11:29:46;;;;;;;6.40;2.17;;;-9.20;95.60;;;;;;2208973;64;20089;-44
2021/12/25 11:32:21;;;;;;;4.33;2.47;;;-9.30;96.80;;;;;;2208824;64;20154;-41
2021/12/25 11:34:53;;;;;;;;;;;-9.10;97.70;;;;;;2212087;64;20170;-42
2021/12/25 11:37:25;;;;;;;3.57;1.83;;;-9.00;97.90;;;;;;2211850;64;20051;-43
2021/12/25 11:39:57;;;;;;;5.07;1.33;;;-8.90;98.20;;;;;;2218938;64;20097;-46
2021/12/25 11:42:29;;;;;;;8.37;2.37;;;-8.70;98.80;;;;;;2216975;64;20575;-45
2021/12/25 11:45:19;;;;;;;4.20;1.87;;;-8.60;98.50;;;;;;2219885;64;20632;-45
2021/12/25 11:47:52;;;;;;;2.50;1.60;;;-8.60;98.70;;;;;;2219954;64;20085;-43
2021/12/25 11:50:40;;;;;;;2.13;1.53;;;-8.50;98.70;;;;;;2219659;64;20119;-43
2021/12/25 11:53:22;;;;;;;3.27;1.33;;;-8.50;97.40;;;;;;2216933;64;20088;-44
2021/12/25 11:58:50;;;;;;;4.47;1.47;;;-8.50;96.40;;;;;;2219893;64;20165;-44
2021/12/25 12:01:31;;;;;;;7.13;2.03;;;-8.40;96.40;;;;;;2219972;64;20096;-43
2021/12/25 12:04:12;;;;;;;10.90;1.90;;;-8.30;97.60;;;;;;2220038;64;20089;-43
2021/12/25 12:06:47;;;;;;;4.03;1.50;;;-8.10;98.00;;;;;;2219964;64;20138;-46
2021/12/25 12:09:19;;;;;;;5.75;1.63;;;-8.00;97.30;;;;;;2219830;64;20092;-44
2021/12/25 12:12:11;;;;;;;2.27;1.37;;;-7.90;97.40;;;;;;2222917;64;20523;-45
2021/12/25 12:14:43;;;;;;;5.63;1.20;;;-7.90;96.80;;;;;;2223075;64;20103;-44
2021/12/25 12:17:18;;;;;;;5.67;2.40;;;-7.90;97.20;;;;;;2219908;64;20096;-45
2021/12/25 12:19:51;;;;;;;;;;;-8.00;98.20;;;;;;2219956;64;20104;-47
2021/12/25 12:22:33;;;;;;;6.47;2.03;;;-8.00;98.70;;;;;;2219886;64;20459;-52
2021/12/25 12:25:42;;;;;;;6.90;2.03;;;-8.10;99.20;;;;;;2219990;64;20182;-50
2021/12/25 12:28:13;;;;;;;5.80;1.67;;;-8.00;99.90;;;;;;2219903;64;20076;-54
2021/12/25 12:30:47;;;;;;;5.70;2.87;;;-7.80;99.90;;;;;;2219802;64;20112;-56
2021/12/25 12:33:19;;;;;;;6.93;2.40;;;-7.70;99.90;;;;;;2217124;64;20085;-58
2021/12/25 12:35:52;;;;;;;8.43;2.53;;;-7.60;99.90;;;;;;2220076;64;20088;-60
2021/12/25 12:38:48;;;;;;;6.53;1.83;;;-7.60;99.90;;;;;;2219946;64;20084;-59
2021/12/25 12:41:38;;;;;;;15.00;3.80;;;-7.40;99.90;;;;;;2219908;64;20178;-59
2021/12/25 12:44:15;;;;;;;8.23;1.80;;;-7.40;99.90;;;;;;2213907;64;20093;-56
2021/12/25 12:46:56;;;;;;;7.07;2.73;;;-7.40;99.90;;;;;;2219940;64;20098;-55
2021/12/25 12:49:53;;;;;;;4.03;1.47;;;-7.50;99.60;;;;;;2219817;64;20525;-56
2021/12/25 12:52:37;;;;;;;2.87;1.50;;;-7.60;99.50;;;;;;2219763;64;20100;-57
2021/12/25 12:55:11;;;;;;;7.50;2.00;;;-7.60;98.80;;;;;;2219951;64;20583;-55
2021/12/25 12:57:44;;;;;;;4.50;1.40;;;-7.60;98.40;;;;;;2219841;64;20536;-54
2021/12/25 13:00:19;;;;;;;6.10;2.13;;;-7.60;98.80;;;;;;2220029;64;20081;-53
2021/12/25 13:02:55;;;;;;;3.53;1.57;;;-7.40;98.60;;;;;;2220079;64;20198;-53
2021/12/25 13:05:33;;;;;;;29.67;4.83;;;-7.30;98.90;;;;;;2219857;64;20085;-55
2021/12/25 13:08:26;;;;;;;7.30;2.13;;;-7.20;98.80;;;;;;2219758;64;20089;-57
2021/12/25 13:11:09;;;;;;;6.33;2.40;;;-7.20;98.60;;;;;;2223060;64;20115;-59
2021/12/25 13:13:50;;;;;;;5.03;2.60;;;-7.20;98.10;;;;;;2219935;64;20160;-60
2021/12/25 13:16:24;;;;;;;4.87;1.67;;;-7.30;97.70;;;;;;2219918;64;20104;-56
2021/12/25 13:18:57;;;;;;;7.47;1.90;;;-7.30;97.50;;;;;;2219584;64;20088;-57
2021/12/25 13:21:29;;;;;;;4.23;1.73;;;-7.40;97.40;;;;;;2223444;64;20610;-56
2021/12/25 13:24:11;;;;;;;1.83;1.00;;;-7.40;97.10;;;;;;2220487;64;20423;-55
2021/12/25 13:26:48;;;;;;;6.43;1.50;;;-7.40;97.50;;;;;;2220393;64;20135;-59
2021/12/25 13:29:21;;;;;;;8.03;2.20;;;-7.40;98.00;;;;;;2217323;64;20437;-55
2021/12/25 13:31:53;;;;;;;4.63;1.83;;;-7.30;98.40;;;;;;2220377;64;20252;-61
2021/12/25 13:34:25;;;;;;;10.33;2.23;;;-7.20;98.90;;;;;;2220247;64;20088;-59
2021/12/25 13:36:57;;;;;;;6.03;1.97;;;-7.20;98.50;;;;;;2220255;64;20135;-59
2021/12/25 13:39:32;;;;;;;3.87;2.00;;;-7.10;98.70;;;;;;2220293;64;20092;-57
2021/12/25 13:42:07;;;;;;;5.13;1.73;;;-7.20;98.20;;;;;;2220302;64;20092;-58
2021/12/25 13:44:42;;;;;;;6.17;2.23;;;-7.20;98.10;;;;;;2220492;64;20087;-59
2021/12/25 13:47:24;;;;;;;3.33;1.20;;;-7.10;98.40;;;;;;2220336;64;20082;-58
2021/12/25 13:50:02;;;;;;;4.17;1.23;;;-7.20;98.60;;;;;;2220260;64;20096;-61
2021/12/25 13:52:38;;;;;;;4.37;1.30;;;-7.20;99.00;;;;;;2220228;64;20564;-59
2021/12/25 13:55:14;;;;;;;4.93;1.97;;;-7.20;99.10;;;;;;2220499;64;20118;-62
2021/12/25 13:57:51;;;;;;;8.83;2.40;;;-7.20;99.00;;;;;;2217263;64;20586;-61
2021/12/25 14:00:30;;;;;;;4.40;2.83;;;-7.10;98.90;;;;;;2220157;64;20111;-59
2021/12/25 14:03:11;;;;;;;8.17;1.93;;;-7.10;99.00;;;;;;2217145;64;20089;-58
2021/12/25 14:05:44;;;;;;;4.60;1.80;;;-7.10;99.20;;;;;;2220175;64;20097;-60
2021/12/25 14:08:24;;;;;;;4.33;2.20;;;-7.10;98.90;;;;;;2208164;64;20089;-58
2021/12/25 14:10:59;;;;;;;6.77;2.20;;;-7.10;99.20;;;;;;2206752;64;20721;-58
2021/12/25 14:13:34;;;;;;;5.57;1.77;;;-7.10;99.20;;;;;;2206616;64;20609;-57
2021/12/25 14:16:06;;;;;;;4.53;2.13;;;-7.10;99.50;;;;;;2200657;65;20486;-59
2021/12/25 14:18:39;;;;;;;7.37;2.80;;;-7.10;99.60;;;;;;2206783;64;20610;-58
2021/12/25 14:21:28;;;;;;;4.70;1.50;;;-7.10;99.60;;;;;;2203760;64;20090;-55
2021/12/25 14:24:06;;;;;;;2.77;1.37;;;-7.10;99.20;;;;;;2206866;64;20098;-56